sensor_id;sensor_type;location;lat;lon;timestamp;P1;durP1;ratioP1;P2;durP2;ratioP2
39098;SDS011;24844;52.380;7.018;2024-02-15T00:00:47;58.70;;;32.83;;
39098;SDS011;24844;52.380;7.018;2024-02-15T00:03:13;63.13;;;32.72;;
39098;SDS011;24844;52.380;7.018;2024-02-15T00:05:39;57.28;;;31.98;;
39098;SDS011;24844;52.380;7.018;2024-02-15T00:08:04;51.63;;;29.55;;
39098;SDS011;24844;52.380;7.018;2024-02-15T00:10:31;53.90;;;31.00;;
39098;SDS011;24844;52.380;7.018;2024-02-15T00:12:57;50.33;;;28.25;;
39098;SDS011;24844;52.380;7.018;2024-02-15T00:15:23;55.85;;;30.17;;
39098;SDS011;24844;52.380;7.018;2024-02-15T00:17:48;45.03;;;25.90;;
39098;SDS011;24844;52.380;7.018;2024-02-15T00:20:14;50.20;;;25.30;;
39098;SDS011;24844;52.380;7.018;2024-02-15T00:22:39;51.17;;;26.52;;
39098;SDS011;24844;52.380;7.018;2024-02-15T00:25:08;51.15;;;27.67;;
39098;SDS011;24844;52.380;7.018;2024-02-15T00:27:37;46.80;;;25.70;;
39098;SDS011;24844;52.380;7.018;2024-02-15T00:32:30;53.10;;;25.77;;
39098;SDS011;24844;52.380;7.018;2024-02-15T00:34:56;48.20;;;25.13;;
39098;SDS011;24844;52.380;7.018;2024-02-15T00:37:21;54.53;;;27.65;;
39098;SDS011;24844;52.380;7.018;2024-02-15T00:39:47;57.83;;;27.95;;
39098;SDS011;24844;52.380;7.018;2024-02-15T00:42:13;54.25;;;27.45;;
39098;SDS011;24844;52.380;7.018;2024-02-15T00:44:40;48.65;;;25.63;;
39098;SDS011;24844;52.380;7.018;2024-02-15T00:47:06;45.83;;;25.05;;
39098;SDS011;24844;52.380;7.018;2024-02-15T00:49:32;60.47;;;30.55;;
39098;SDS011;24844;52.380;7.018;2024-02-15T00:51:58;54.58;;;27.63;;
39098;SDS011;24844;52.380;7.018;2024-02-15T00:54:24;55.05;;;27.90;;
39098;SDS011;24844;52.380;7.018;2024-02-15T00:56:50;49.42;;;25.52;;
39098;SDS011;24844;52.380;7.018;2024-02-15T00:59:16;51.05;;;25.63;;
39098;SDS011;24844;52.380;7.018;2024-02-15T01:01:43;52.85;;;25.65;;
39098;SDS011;24844;52.380;7.018;2024-02-15T01:04:08;51.53;;;25.75;;
39098;SDS011;24844;52.380;7.018;2024-02-15T01:06:34;47.05;;;23.65;;
39098;SDS011;24844;52.380;7.018;2024-02-15T01:09:00;51.80;;;24.75;;
39098;SDS011;24844;52.380;7.018;2024-02-15T01:11:27;46.20;;;21.75;;
39098;SDS011;24844;52.380;7.018;2024-02-15T01:13:57;51.05;;;23.63;;
39098;SDS011;24844;52.380;7.018;2024-02-15T01:16:23;48.90;;;23.63;;
39098;SDS011;24844;52.380;7.018;2024-02-15T01:18:52;38.88;;;20.52;;
39098;SDS011;24844;52.380;7.018;2024-02-15T01:21:18;41.03;;;21.15;;
39098;SDS011;24844;52.380;7.018;2024-02-15T01:23:44;44.05;;;21.55;;
39098;SDS011;24844;52.380;7.018;2024-02-15T01:26:11;41.47;;;19.52;;
39098;SDS011;24844;52.380;7.018;2024-02-15T01:28:38;45.35;;;20.50;;
39098;SDS011;24844;52.380;7.018;2024-02-15T01:31:05;44.72;;;22.40;;
39098;SDS011;24844;52.380;7.018;2024-02-15T01:33:31;43.17;;;22.33;;
39098;SDS011;24844;52.380;7.018;2024-02-15T01:36:01;46.53;;;22.83;;
39098;SDS011;24844;52.380;7.018;2024-02-15T01:38:27;48.25;;;22.58;;
39098;SDS011;24844;52.380;7.018;2024-02-15T01:40:52;35.47;;;19.10;;
39098;SDS011;24844;52.380;7.018;2024-02-15T01:43:18;47.33;;;21.48;;
39098;SDS011;24844;52.380;7.018;2024-02-15T01:45:44;35.63;;;17.48;;
39098;SDS011;24844;52.380;7.018;2024-02-15T01:48:12;47.33;;;21.20;;
39098;SDS011;24844;52.380;7.018;2024-02-15T01:50:39;50.05;;;22.20;;
39098;SDS011;24844;52.380;7.018;2024-02-15T01:53:06;38.28;;;19.85;;
39098;SDS011;24844;52.380;7.018;2024-02-15T01:55:37;42.95;;;19.05;;
39098;SDS011;24844;52.380;7.018;2024-02-15T01:58:03;42.75;;;19.67;;
39098;SDS011;24844;52.380;7.018;2024-02-15T02:00:29;36.40;;;18.30;;
39098;SDS011;24844;52.380;7.018;2024-02-15T02:02:55;49.88;;;23.10;;
39098;SDS011;24844;52.380;7.018;2024-02-15T02:05:25;54.40;;;23.88;;
39098;SDS011;24844;52.380;7.018;2024-02-15T02:07:53;55.50;;;23.27;;
39098;SDS011;24844;52.380;7.018;2024-02-15T02:10:24;48.63;;;23.50;;
39098;SDS011;24844;52.380;7.018;2024-02-15T02:12:52;47.58;;;23.20;;
39098;SDS011;24844;52.380;7.018;2024-02-15T02:15:18;57.75;;;25.02;;
39098;SDS011;24844;52.380;7.018;2024-02-15T02:17:48;51.28;;;23.83;;
39098;SDS011;24844;52.380;7.018;2024-02-15T02:20:15;47.33;;;22.60;;
39098;SDS011;24844;52.380;7.018;2024-02-15T02:22:41;52.15;;;25.77;;
39098;SDS011;24844;52.380;7.018;2024-02-15T02:25:13;47.40;;;24.30;;
39098;SDS011;24844;52.380;7.018;2024-02-15T02:27:39;60.97;;;28.75;;
39098;SDS011;24844;52.380;7.018;2024-02-15T02:30:15;61.92;;;27.85;;
39098;SDS011;24844;52.380;7.018;2024-02-15T02:32:43;61.75;;;27.90;;
39098;SDS011;24844;52.380;7.018;2024-02-15T02:35:10;74.53;;;31.02;;
39098;SDS011;24844;52.380;7.018;2024-02-15T02:37:37;70.35;;;28.60;;
39098;SDS011;24844;52.380;7.018;2024-02-15T02:40:04;67.60;;;31.75;;
39098;SDS011;24844;52.380;7.018;2024-02-15T02:42:33;63.45;;;30.77;;
39098;SDS011;24844;52.380;7.018;2024-02-15T02:45:00;75.25;;;32.30;;
39098;SDS011;24844;52.380;7.018;2024-02-15T02:47:26;63.08;;;30.63;;
39098;SDS011;24844;52.380;7.018;2024-02-15T02:49:51;69.35;;;32.30;;
39098;SDS011;24844;52.380;7.018;2024-02-15T02:52:17;71.43;;;34.05;;
39098;SDS011;24844;52.380;7.018;2024-02-15T02:54:43;70.00;;;32.58;;
39098;SDS011;24844;52.380;7.018;2024-02-15T02:57:08;76.07;;;36.03;;
39098;SDS011;24844;52.380;7.018;2024-02-15T02:59:34;79.25;;;34.50;;
39098;SDS011;24844;52.380;7.018;2024-02-15T03:02:00;66.95;;;32.53;;
39098;SDS011;24844;52.380;7.018;2024-02-15T03:04:27;70.50;;;33.08;;
39098;SDS011;24844;52.380;7.018;2024-02-15T03:06:52;70.93;;;33.72;;
39098;SDS011;24844;52.380;7.018;2024-02-15T03:09:20;73.85;;;34.80;;
39098;SDS011;24844;52.380;7.018;2024-02-15T03:11:47;88.57;;;40.28;;
39098;SDS011;24844;52.380;7.018;2024-02-15T03:14:14;84.68;;;39.35;;
39098;SDS011;24844;52.380;7.018;2024-02-15T03:16:40;81.25;;;38.20;;
39098;SDS011;24844;52.380;7.018;2024-02-15T03:19:05;82.65;;;38.90;;
39098;SDS011;24844;52.380;7.018;2024-02-15T03:21:34;71.18;;;36.35;;
39098;SDS011;24844;52.380;7.018;2024-02-15T03:23:59;78.50;;;35.60;;
39098;SDS011;24844;52.380;7.018;2024-02-15T03:26:31;83.88;;;41.28;;
39098;SDS011;24844;52.380;7.018;2024-02-15T03:29:02;70.25;;;35.75;;
39098;SDS011;24844;52.380;7.018;2024-02-15T03:31:28;70.70;;;34.83;;
39098;SDS011;24844;52.380;7.018;2024-02-15T03:33:55;79.82;;;38.58;;
39098;SDS011;24844;52.380;7.018;2024-02-15T03:36:22;65.82;;;35.42;;
39098;SDS011;24844;52.380;7.018;2024-02-15T03:38:48;86.20;;;41.22;;
39098;SDS011;24844;52.380;7.018;2024-02-15T03:41:13;78.13;;;39.25;;
39098;SDS011;24844;52.380;7.018;2024-02-15T03:43:39;82.20;;;39.85;;
39098;SDS011;24844;52.380;7.018;2024-02-15T03:46:05;78.55;;;38.50;;
39098;SDS011;24844;52.380;7.018;2024-02-15T03:48:33;84.18;;;42.33;;
39098;SDS011;24844;52.380;7.018;2024-02-15T03:50:59;66.00;;;34.72;;
39098;SDS011;24844;52.380;7.018;2024-02-15T03:53:26;84.60;;;40.63;;
39098;SDS011;24844;52.380;7.018;2024-02-15T03:55:56;67.15;;;36.63;;
39098;SDS011;24844;52.380;7.018;2024-02-15T03:58:22;72.40;;;37.28;;
39098;SDS011;24844;52.380;7.018;2024-02-15T04:00:47;84.03;;;42.45;;
39098;SDS011;24844;52.380;7.018;2024-02-15T04:03:13;62.60;;;32.70;;
39098;SDS011;24844;52.380;7.018;2024-02-15T04:05:39;60.25;;;32.70;;
39098;SDS011;24844;52.380;7.018;2024-02-15T04:08:04;76.20;;;41.35;;
39098;SDS011;24844;52.380;7.018;2024-02-15T04:10:30;67.95;;;38.13;;
39098;SDS011;24844;52.380;7.018;2024-02-15T04:12:56;64.78;;;34.05;;
39098;SDS011;24844;52.380;7.018;2024-02-15T04:15:23;63.53;;;34.10;;
39098;SDS011;24844;52.380;7.018;2024-02-15T04:17:48;67.75;;;33.72;;
39098;SDS011;24844;52.380;7.018;2024-02-15T04:20:20;64.97;;;33.42;;
39098;SDS011;24844;52.380;7.018;2024-02-15T04:22:46;61.85;;;32.22;;
39098;SDS011;24844;52.380;7.018;2024-02-15T04:25:12;63.65;;;31.30;;
39098;SDS011;24844;52.380;7.018;2024-02-15T04:27:48;63.53;;;32.78;;
39098;SDS011;24844;52.380;7.018;2024-02-15T04:30:14;51.33;;;28.50;;
39098;SDS011;24844;52.380;7.018;2024-02-15T04:32:43;59.15;;;30.85;;
39098;SDS011;24844;52.380;7.018;2024-02-15T04:35:09;58.85;;;28.25;;
39098;SDS011;24844;52.380;7.018;2024-02-15T04:37:35;55.45;;;28.77;;
39098;SDS011;24844;52.380;7.018;2024-02-15T04:40:02;57.78;;;28.50;;
39098;SDS011;24844;52.380;7.018;2024-02-15T04:42:35;65.32;;;31.42;;
39098;SDS011;24844;52.380;7.018;2024-02-15T04:47:33;56.22;;;27.15;;
39098;SDS011;24844;52.380;7.018;2024-02-15T04:50:02;52.88;;;26.85;;
39098;SDS011;24844;52.380;7.018;2024-02-15T04:52:28;41.97;;;23.88;;
39098;SDS011;24844;52.380;7.018;2024-02-15T04:54:54;55.00;;;26.63;;
39098;SDS011;24844;52.380;7.018;2024-02-15T04:57:20;59.42;;;29.92;;
39098;SDS011;24844;52.380;7.018;2024-02-15T04:59:47;53.25;;;27.33;;
39098;SDS011;24844;52.380;7.018;2024-02-15T05:02:13;58.35;;;29.15;;
39098;SDS011;24844;52.380;7.018;2024-02-15T05:04:39;59.50;;;30.45;;
39098;SDS011;24844;52.380;7.018;2024-02-15T05:07:07;59.05;;;30.42;;
39098;SDS011;24844;52.380;7.018;2024-02-15T05:09:33;54.65;;;27.92;;
39098;SDS011;24844;52.380;7.018;2024-02-15T05:11:59;64.50;;;30.75;;
39098;SDS011;24844;52.380;7.018;2024-02-15T05:14:27;78.73;;;34.67;;
39098;SDS011;24844;52.380;7.018;2024-02-15T05:16:53;61.92;;;28.38;;
39098;SDS011;24844;52.380;7.018;2024-02-15T05:19:18;54.08;;;27.88;;
39098;SDS011;24844;52.380;7.018;2024-02-15T05:21:45;60.20;;;28.98;;
39098;SDS011;24844;52.380;7.018;2024-02-15T05:24:15;66.97;;;31.67;;
39098;SDS011;24844;52.380;7.018;2024-02-15T05:26:41;58.20;;;28.02;;
39098;SDS011;24844;52.380;7.018;2024-02-15T05:29:11;54.45;;;26.50;;
39098;SDS011;24844;52.380;7.018;2024-02-15T05:31:38;49.88;;;24.80;;
39098;SDS011;24844;52.380;7.018;2024-02-15T05:34:06;46.45;;;22.65;;
39098;SDS011;24844;52.380;7.018;2024-02-15T05:36:33;49.20;;;24.93;;
39098;SDS011;24844;52.380;7.018;2024-02-15T05:38:59;47.90;;;23.75;;
39098;SDS011;24844;52.380;7.018;2024-02-15T05:41:25;49.60;;;24.45;;
39098;SDS011;24844;52.380;7.018;2024-02-15T05:43:51;43.42;;;20.65;;
39098;SDS011;24844;52.380;7.018;2024-02-15T05:46:19;45.33;;;20.10;;
39098;SDS011;24844;52.380;7.018;2024-02-15T05:48:48;54.92;;;19.70;;
39098;SDS011;24844;52.380;7.018;2024-02-15T05:51:14;36.95;;;18.13;;
39098;SDS011;24844;52.380;7.018;2024-02-15T05:53:40;38.20;;;17.95;;
39098;SDS011;24844;52.380;7.018;2024-02-15T05:56:06;30.48;;;15.80;;
39098;SDS011;24844;52.380;7.018;2024-02-15T05:58:37;33.00;;;16.63;;
39098;SDS011;24844;52.380;7.018;2024-02-15T06:01:03;37.22;;;18.42;;
39098;SDS011;24844;52.380;7.018;2024-02-15T06:03:35;31.42;;;16.20;;
39098;SDS011;24844;52.380;7.018;2024-02-15T06:06:03;32.70;;;15.20;;
39098;SDS011;24844;52.380;7.018;2024-02-15T06:08:33;35.55;;;17.02;;
39098;SDS011;24844;52.380;7.018;2024-02-15T06:10:59;31.75;;;15.18;;
39098;SDS011;24844;52.380;7.018;2024-02-15T06:13:25;35.80;;;15.32;;
39098;SDS011;24844;52.380;7.018;2024-02-15T06:15:51;29.58;;;13.80;;
39098;SDS011;24844;52.380;7.018;2024-02-15T06:18:23;32.75;;;13.90;;
39098;SDS011;24844;52.380;7.018;2024-02-15T06:20:51;29.83;;;15.15;;
39098;SDS011;24844;52.380;7.018;2024-02-15T06:23:17;29.33;;;14.95;;
39098;SDS011;24844;52.380;7.018;2024-02-15T06:25:43;33.67;;;15.10;;
39098;SDS011;24844;52.380;7.018;2024-02-15T06:28:09;30.90;;;14.02;;
39098;SDS011;24844;52.380;7.018;2024-02-15T06:30:45;43.47;;;22.08;;
39098;SDS011;24844;52.380;7.018;2024-02-15T06:33:29;51.90;;;33.38;;
39098;SDS011;24844;52.380;7.018;2024-02-15T06:36:13;35.55;;;14.88;;
39098;SDS011;24844;52.380;7.018;2024-02-15T06:38:57;38.53;;;15.60;;
39098;SDS011;24844;52.380;7.018;2024-02-15T06:41:41;30.52;;;15.02;;
39098;SDS011;24844;52.380;7.018;2024-02-15T06:44:08;32.28;;;14.25;;
39098;SDS011;24844;52.380;7.018;2024-02-15T06:46:34;35.97;;;15.88;;
39098;SDS011;24844;52.380;7.018;2024-02-15T06:49:00;35.90;;;13.30;;
39098;SDS011;24844;52.380;7.018;2024-02-15T06:51:25;29.15;;;13.57;;
39098;SDS011;24844;52.380;7.018;2024-02-15T06:53:51;29.30;;;13.90;;
39098;SDS011;24844;52.380;7.018;2024-02-15T06:56:20;28.55;;;13.60;;
39098;SDS011;24844;52.380;7.018;2024-02-15T06:58:46;25.15;;;12.82;;
39098;SDS011;24844;52.380;7.018;2024-02-15T07:01:13;23.42;;;13.18;;
39098;SDS011;24844;52.380;7.018;2024-02-15T07:03:41;30.35;;;12.77;;
39098;SDS011;24844;52.380;7.018;2024-02-15T07:06:10;25.50;;;12.05;;
39098;SDS011;24844;52.380;7.018;2024-02-15T07:08:38;25.52;;;12.43;;
39098;SDS011;24844;52.380;7.018;2024-02-15T07:11:06;24.35;;;13.00;;
39098;SDS011;24844;52.380;7.018;2024-02-15T07:13:34;23.92;;;12.63;;
39098;SDS011;24844;52.380;7.018;2024-02-15T07:16:06;25.52;;;14.70;;
39098;SDS011;24844;52.380;7.018;2024-02-15T07:18:33;19.63;;;12.80;;
39098;SDS011;24844;52.380;7.018;2024-02-15T07:20:58;24.88;;;14.60;;
39098;SDS011;24844;52.380;7.018;2024-02-15T07:23:26;24.17;;;12.20;;
39098;SDS011;24844;52.380;7.018;2024-02-15T07:25:52;20.65;;;11.82;;
39098;SDS011;24844;52.380;7.018;2024-02-15T07:28:19;23.50;;;12.18;;
39098;SDS011;24844;52.380;7.018;2024-02-15T07:30:46;21.77;;;12.30;;
39098;SDS011;24844;52.380;7.018;2024-02-15T07:33:14;21.10;;;12.48;;
39098;SDS011;24844;52.380;7.018;2024-02-15T07:35:42;18.20;;;11.13;;
39098;SDS011;24844;52.380;7.018;2024-02-15T07:38:11;25.85;;;14.05;;
39098;SDS011;24844;52.380;7.018;2024-02-15T07:40:36;25.55;;;12.05;;
39098;SDS011;24844;52.380;7.018;2024-02-15T07:43:04;21.55;;;11.60;;
39098;SDS011;24844;52.380;7.018;2024-02-15T07:45:31;25.30;;;12.50;;
39098;SDS011;24844;52.380;7.018;2024-02-15T07:48:01;27.50;;;13.20;;
39098;SDS011;24844;52.380;7.018;2024-02-15T07:50:29;17.75;;;10.98;;
39098;SDS011;24844;52.380;7.018;2024-02-15T07:52:55;19.88;;;10.93;;
39098;SDS011;24844;52.380;7.018;2024-02-15T07:55:21;17.88;;;10.23;;
39098;SDS011;24844;52.380;7.018;2024-02-15T07:57:47;21.85;;;11.57;;
39098;SDS011;24844;52.380;7.018;2024-02-15T08:00:13;18.55;;;9.18;;
39098;SDS011;24844;52.380;7.018;2024-02-15T08:02:41;16.50;;;8.60;;
39098;SDS011;24844;52.380;7.018;2024-02-15T08:05:08;18.02;;;10.07;;
39098;SDS011;24844;52.380;7.018;2024-02-15T08:07:40;16.75;;;8.60;;
39098;SDS011;24844;52.380;7.018;2024-02-15T08:10:07;15.98;;;8.85;;
39098;SDS011;24844;52.380;7.018;2024-02-15T08:12:42;15.32;;;7.63;;
39098;SDS011;24844;52.380;7.018;2024-02-15T08:15:08;15.60;;;9.50;;
39098;SDS011;24844;52.380;7.018;2024-02-15T08:17:38;14.90;;;8.05;;
39098;SDS011;24844;52.380;7.018;2024-02-15T08:20:05;14.75;;;7.82;;
39098;SDS011;24844;52.380;7.018;2024-02-15T08:22:33;17.10;;;8.93;;
39098;SDS011;24844;52.380;7.018;2024-02-15T08:24:59;16.92;;;8.25;;
39098;SDS011;24844;52.380;7.018;2024-02-15T08:27:25;14.07;;;8.50;;
39098;SDS011;24844;52.380;7.018;2024-02-15T08:30:07;16.70;;;8.85;;
39098;SDS011;24844;52.380;7.018;2024-02-15T08:32:34;12.70;;;7.50;;
39098;SDS011;24844;52.380;7.018;2024-02-15T08:35:00;18.83;;;8.30;;
39098;SDS011;24844;52.380;7.018;2024-02-15T08:37:26;15.35;;;7.85;;
39098;SDS011;24844;52.380;7.018;2024-02-15T08:39:51;13.45;;;7.25;;
39098;SDS011;24844;52.380;7.018;2024-02-15T08:42:18;16.63;;;8.60;;
39098;SDS011;24844;52.380;7.018;2024-02-15T08:47:13;15.75;;;8.75;;
39098;SDS011;24844;52.380;7.018;2024-02-15T08:49:39;10.65;;;7.28;;
39098;SDS011;24844;52.380;7.018;2024-02-15T08:52:05;22.17;;;12.68;;
39098;SDS011;24844;52.380;7.018;2024-02-15T08:54:32;25.92;;;15.27;;
39098;SDS011;24844;52.380;7.018;2024-02-15T08:56:58;29.63;;;18.23;;
39098;SDS011;24844;52.380;7.018;2024-02-15T08:59:26;28.47;;;17.90;;
39098;SDS011;24844;52.380;7.018;2024-02-15T09:01:53;31.25;;;22.10;;
39098;SDS011;24844;52.380;7.018;2024-02-15T09:04:21;15.38;;;8.82;;
39098;SDS011;24844;52.380;7.018;2024-02-15T09:06:49;12.07;;;7.80;;
39098;SDS011;24844;52.380;7.018;2024-02-15T09:09:15;9.88;;;6.05;;
39098;SDS011;24844;52.380;7.018;2024-02-15T09:11:41;13.88;;;7.03;;
39098;SDS011;24844;52.380;7.018;2024-02-15T09:14:07;11.82;;;7.18;;
39098;SDS011;24844;52.380;7.018;2024-02-15T09:16:38;8.25;;;6.25;;
39098;SDS011;24844;52.380;7.018;2024-02-15T09:19:08;6.82;;;5.68;;
39098;SDS011;24844;52.380;7.018;2024-02-15T09:21:34;9.23;;;5.90;;
39098;SDS011;24844;52.380;7.018;2024-02-15T09:24:01;10.18;;;6.00;;
39098;SDS011;24844;52.380;7.018;2024-02-15T09:26:27;9.65;;;6.28;;
39098;SDS011;24844;52.380;7.018;2024-02-15T09:28:52;8.30;;;5.82;;
39098;SDS011;24844;52.380;7.018;2024-02-15T09:31:18;11.10;;;5.72;;
39098;SDS011;24844;52.380;7.018;2024-02-15T09:33:44;8.23;;;6.25;;
39098;SDS011;24844;52.380;7.018;2024-02-15T09:36:10;17.05;;;12.05;;
39098;SDS011;24844;52.380;7.018;2024-02-15T09:38:37;17.35;;;9.70;;
39098;SDS011;24844;52.380;7.018;2024-02-15T09:41:04;11.65;;;7.68;;
39098;SDS011;24844;52.380;7.018;2024-02-15T09:43:32;9.30;;;6.43;;
39098;SDS011;24844;52.380;7.018;2024-02-15T09:45:59;11.82;;;6.32;;
39098;SDS011;24844;52.380;7.018;2024-02-15T09:48:29;8.90;;;5.47;;
39098;SDS011;24844;52.380;7.018;2024-02-15T09:50:59;10.82;;;5.88;;
39098;SDS011;24844;52.380;7.018;2024-02-15T09:53:26;11.75;;;6.68;;
39098;SDS011;24844;52.380;7.018;2024-02-15T09:55:53;11.27;;;6.05;;
39098;SDS011;24844;52.380;7.018;2024-02-15T09:58:20;9.13;;;4.88;;
39098;SDS011;24844;52.380;7.018;2024-02-15T10:00:48;7.82;;;5.75;;
39098;SDS011;24844;52.380;7.018;2024-02-15T10:03:16;8.27;;;5.43;;
39098;SDS011;24844;52.380;7.018;2024-02-15T10:05:46;9.02;;;7.13;;
39098;SDS011;24844;52.380;7.018;2024-02-15T10:08:14;7.80;;;5.95;;
39098;SDS011;24844;52.380;7.018;2024-02-15T10:10:40;12.07;;;5.78;;
39098;SDS011;24844;52.380;7.018;2024-02-15T10:13:06;5.68;;;4.65;;
39098;SDS011;24844;52.380;7.018;2024-02-15T10:15:38;7.38;;;4.72;;
39098;SDS011;24844;52.380;7.018;2024-02-15T10:18:09;4.63;;;3.90;;
39098;SDS011;24844;52.380;7.018;2024-02-15T10:20:39;6.70;;;3.90;;
39098;SDS011;24844;52.380;7.018;2024-02-15T10:23:12;4.82;;;4.05;;
39098;SDS011;24844;52.380;7.018;2024-02-15T10:25:42;6.35;;;3.83;;
39098;SDS011;24844;52.380;7.018;2024-02-15T10:28:09;4.22;;;2.78;;
39098;SDS011;24844;52.380;7.018;2024-02-15T10:30:41;4.90;;;3.15;;
39098;SDS011;24844;52.380;7.018;2024-02-15T10:33:17;5.82;;;5.20;;
39098;SDS011;24844;52.380;7.018;2024-02-15T10:35:47;5.03;;;4.50;;
39098;SDS011;24844;52.380;7.018;2024-02-15T10:38:13;3.97;;;3.30;;
39098;SDS011;24844;52.380;7.018;2024-02-15T10:40:38;5.30;;;3.03;;
39098;SDS011;24844;52.380;7.018;2024-02-15T10:43:08;4.00;;;2.92;;
39098;SDS011;24844;52.380;7.018;2024-02-15T10:45:38;6.25;;;3.63;;
39098;SDS011;24844;52.380;7.018;2024-02-15T10:48:08;6.32;;;3.20;;
39098;SDS011;24844;52.380;7.018;2024-02-15T10:50:35;4.97;;;3.58;;
39098;SDS011;24844;52.380;7.018;2024-02-15T10:53:03;5.10;;;3.28;;
39098;SDS011;24844;52.380;7.018;2024-02-15T10:58:34;5.13;;;3.05;;
39098;SDS011;24844;52.380;7.018;2024-02-15T11:01:11;5.18;;;2.67;;
39098;SDS011;24844;52.380;7.018;2024-02-15T11:03:43;8.80;;;3.35;;
39098;SDS011;24844;52.380;7.018;2024-02-15T11:06:20;8.10;;;4.32;;
39098;SDS011;24844;52.380;7.018;2024-02-15T11:08:47;7.38;;;3.97;;
39098;SDS011;24844;52.380;7.018;2024-02-15T11:11:13;8.57;;;4.20;;
39098;SDS011;24844;52.380;7.018;2024-02-15T11:13:40;8.68;;;3.60;;
39098;SDS011;24844;52.380;7.018;2024-02-15T11:16:07;5.73;;;3.20;;
39098;SDS011;24844;52.380;7.018;2024-02-15T11:18:46;7.18;;;3.88;;
39098;SDS011;24844;52.380;7.018;2024-02-15T11:21:17;11.35;;;4.05;;
39098;SDS011;24844;52.380;7.018;2024-02-15T11:23:43;8.65;;;5.82;;
39098;SDS011;24844;52.380;7.018;2024-02-15T11:26:43;14.63;;;7.57;;
39098;SDS011;24844;52.380;7.018;2024-02-15T11:42:55;10.68;;;5.15;;
39098;SDS011;24844;52.380;7.018;2024-02-15T11:45:24;8.27;;;4.65;;
39098;SDS011;24844;52.380;7.018;2024-02-15T11:47:51;12.63;;;5.07;;
39098;SDS011;24844;52.380;7.018;2024-02-15T11:50:19;10.70;;;5.40;;
39098;SDS011;24844;52.380;7.018;2024-02-15T11:52:45;8.07;;;5.20;;
39098;SDS011;24844;52.380;7.018;2024-02-15T11:55:18;11.40;;;5.57;;
39098;SDS011;24844;52.380;7.018;2024-02-15T11:58:20;8.90;;;5.47;;
39098;SDS011;24844;52.380;7.018;2024-02-15T12:00:46;24.83;;;5.85;;
39098;SDS011;24844;52.380;7.018;2024-02-15T12:03:30;281.98;;;23.23;;
39098;SDS011;24844;52.380;7.018;2024-02-15T12:06:19;131.40;;;10.77;;
39098;SDS011;24844;52.380;7.018;2024-02-15T12:09:03;45.75;;;6.47;;
39098;SDS011;24844;52.380;7.018;2024-02-15T12:11:47;48.22;;;6.80;;
39098;SDS011;24844;52.380;7.018;2024-02-15T12:14:41;156.48;;;12.90;;
39098;SDS011;24844;52.380;7.018;2024-02-15T12:17:25;11.95;;;5.47;;
39098;SDS011;24844;52.380;7.018;2024-02-15T12:20:09;77.20;;;7.65;;
39098;SDS011;24844;52.380;7.018;2024-02-15T12:22:46;35.33;;;6.43;;
39098;SDS011;24844;52.380;7.018;2024-02-15T12:25:13;18.10;;;6.07;;
39098;SDS011;24844;52.380;7.018;2024-02-15T12:27:41;12.80;;;5.95;;
39098;SDS011;24844;52.380;7.018;2024-02-15T12:30:08;15.00;;;5.90;;
39098;SDS011;24844;52.380;7.018;2024-02-15T12:32:38;15.13;;;6.05;;
39098;SDS011;24844;52.380;7.018;2024-02-15T12:35:14;10.57;;;5.20;;
39098;SDS011;24844;52.380;7.018;2024-02-15T12:37:48;11.05;;;5.45;;
39098;SDS011;24844;52.380;7.018;2024-02-15T12:40:34;12.93;;;5.78;;
39098;SDS011;24844;52.380;7.018;2024-02-15T12:43:01;10.15;;;5.65;;
39098;SDS011;24844;52.380;7.018;2024-02-15T12:45:31;19.05;;;5.90;;
39098;SDS011;24844;52.380;7.018;2024-02-15T12:47:57;13.98;;;5.45;;
39098;SDS011;24844;52.380;7.018;2024-02-15T12:50:28;12.02;;;4.90;;
39098;SDS011;24844;52.380;7.018;2024-02-15T12:52:54;11.60;;;4.82;;
39098;SDS011;24844;52.380;7.018;2024-02-15T12:57:52;8.38;;;4.15;;
39098;SDS011;24844;52.380;7.018;2024-02-15T13:00:22;14.43;;;5.28;;
39098;SDS011;24844;52.380;7.018;2024-02-15T13:02:59;9.88;;;4.32;;
39098;SDS011;24844;52.380;7.018;2024-02-15T13:05:29;14.23;;;5.28;;
39098;SDS011;24844;52.380;7.018;2024-02-15T13:07:56;234.27;;;15.40;;
39098;SDS011;24844;52.380;7.018;2024-02-15T13:10:40;36.08;;;6.13;;
39098;SDS011;24844;52.380;7.018;2024-02-15T13:13:09;16.85;;;5.68;;
39098;SDS011;24844;52.380;7.018;2024-02-15T13:15:34;12.73;;;5.00;;
39098;SDS011;24844;52.380;7.018;2024-02-15T13:18:02;12.85;;;5.25;;
39098;SDS011;24844;52.380;7.018;2024-02-15T13:20:31;10.95;;;5.18;;
39098;SDS011;24844;52.380;7.018;2024-02-15T13:23:03;10.45;;;4.40;;
39098;SDS011;24844;52.380;7.018;2024-02-15T13:25:50;14.40;;;3.80;;
39098;SDS011;24844;52.380;7.018;2024-02-15T13:28:17;7.35;;;3.85;;
39098;SDS011;24844;52.380;7.018;2024-02-15T13:30:43;10.93;;;3.70;;
39098;SDS011;24844;52.380;7.018;2024-02-15T13:33:10;7.65;;;3.40;;
39098;SDS011;24844;52.380;7.018;2024-02-15T13:35:36;15.20;;;4.93;;
39098;SDS011;24844;52.380;7.018;2024-02-15T13:38:02;10.50;;;3.97;;
39098;SDS011;24844;52.380;7.018;2024-02-15T13:40:28;9.93;;;3.97;;
39098;SDS011;24844;52.380;7.018;2024-02-15T13:42:59;11.52;;;4.03;;
39098;SDS011;24844;52.380;7.018;2024-02-15T13:45:30;8.18;;;3.20;;
39098;SDS011;24844;52.380;7.018;2024-02-15T13:48:02;8.88;;;3.03;;
39098;SDS011;24844;52.380;7.018;2024-02-15T13:50:37;24.05;;;4.88;;
39098;SDS011;24844;52.380;7.018;2024-02-15T13:53:03;62.38;;;6.05;;
39098;SDS011;24844;52.380;7.018;2024-02-15T13:55:33;10.57;;;3.42;;
39098;SDS011;24844;52.380;7.018;2024-02-15T13:58:01;6.32;;;3.20;;
39098;SDS011;24844;52.380;7.018;2024-02-15T14:00:28;13.32;;;3.90;;
39098;SDS011;24844;52.380;7.018;2024-02-15T14:02:59;7.22;;;2.88;;
39098;SDS011;24844;52.380;7.018;2024-02-15T14:05:27;7.85;;;3.20;;
39098;SDS011;24844;52.380;7.018;2024-02-15T14:07:58;9.30;;;3.70;;
39098;SDS011;24844;52.380;7.018;2024-02-15T14:10:30;8.48;;;2.88;;
39098;SDS011;24844;52.380;7.018;2024-02-15T14:12:57;6.88;;;2.70;;
39098;SDS011;24844;52.380;7.018;2024-02-15T14:15:32;6.82;;;3.03;;
39098;SDS011;24844;52.380;7.018;2024-02-15T14:18:08;10.02;;;3.20;;
39098;SDS011;24844;52.380;7.018;2024-02-15T14:20:36;8.40;;;3.00;;
39098;SDS011;24844;52.380;7.018;2024-02-15T14:23:02;10.05;;;3.00;;
39098;SDS011;24844;52.380;7.018;2024-02-15T14:25:31;8.73;;;3.42;;
39098;SDS011;24844;52.380;7.018;2024-02-15T14:27:57;7.47;;;2.88;;
39098;SDS011;24844;52.380;7.018;2024-02-15T14:30:23;11.38;;;3.30;;
39098;SDS011;24844;52.380;7.018;2024-02-15T14:33:08;11.45;;;3.22;;
39098;SDS011;24844;52.380;7.018;2024-02-15T14:35:36;10.90;;;3.50;;
39098;SDS011;24844;52.380;7.018;2024-02-15T14:38:07;8.38;;;3.50;;
39098;SDS011;24844;52.380;7.018;2024-02-15T14:40:40;11.23;;;4.43;;
39098;SDS011;24844;52.380;7.018;2024-02-15T14:43:07;11.57;;;4.03;;
39098;SDS011;24844;52.380;7.018;2024-02-15T14:48:02;10.55;;;3.65;;
39098;SDS011;24844;52.380;7.018;2024-02-15T14:50:28;10.70;;;4.13;;
39098;SDS011;24844;52.380;7.018;2024-02-15T14:52:54;10.88;;;3.72;;
39098;SDS011;24844;52.380;7.018;2024-02-15T14:55:20;10.70;;;3.25;;
39098;SDS011;24844;52.380;7.018;2024-02-15T14:57:46;9.90;;;3.97;;
39098;SDS011;24844;52.380;7.018;2024-02-15T15:00:12;8.02;;;3.60;;
39098;SDS011;24844;52.380;7.018;2024-02-15T15:02:47;6.65;;;3.13;;
39098;SDS011;24844;52.380;7.018;2024-02-15T15:05:13;9.77;;;4.00;;